Joyce, Washington
Current Conditions -  °F | °C
As of 6:53 AM on Sunday 21 Dec 2014 (Local Time) from KCLM Reporting Station
Broken Clouds Broken Clouds  
Wind Chill: 43°   Ceiling: 5500
Heat Index: 47°   Visibility: 10mi
Dew Point: 44°   Wind: 8mph
Humidity: 90%   Direction: 280°W
Pressure: 29.8"   Gusts: NA
Location:  48.14°N, 123.74°W
Report Text: KCLM 211453Z AUTO 28007KT 10SM FEW039 BKN055 08/07 A2980 RMK AO2 RAB04E31 SLP092 P0002 60002 T00830067 53028 TSNO $
Loading
Personal Weather Stations






























Interactive Weather Map New forecast layout! Learn more

10-Day Weather Forecast

Advertisements
Track Severe Weather on mobile